Time;durP1;ratioP1;P1;durP2;ratioP2;P2;SDS_P1;SDS_P2;PMS_P1;PMS_P2;Temp;Humidity;BMP_temperature;BMP_pressure;BME280_temperature;BME280_humidity;BME280_pressure;Samples;Min_cycle;Max_cycle;Signal;HPM_P1;HPM_P2
2023/05/09 00:02:03;;;;;;;;;;;15.30;94.00;;;;;;5091145;28;19908;-69
2023/05/09 00:04:31;;;;;;;;;;;15.30;94.00;;;;;;5090783;28;19912;-68
2023/05/09 00:06:58;;;;;;;;;;;15.40;94.40;;;;;;5090239;28;19917;-69
2023/05/09 00:09:24;;;;;;;;;;;15.50;93.80;;;;;;5088689;28;19920;-69
2023/05/09 00:11:51;;;;;;;;;;;15.40;93.60;;;;;;5091154;28;19931;-68
2023/05/09 00:14:18;;;;;;;;;;;15.50;93.50;;;;;;5091448;28;19915;-68
2023/05/09 00:16:44;;;;;;;;;;;15.50;93.60;;;;;;5087308;28;20071;-69
2023/05/09 00:19:12;;;;;;;;;;;15.70;93.80;;;;;;5090903;28;19912;-68
2023/05/09 00:21:38;;;;;;;;;;;15.80;94.10;;;;;;5091278;28;19952;-68
2023/05/09 00:24:05;;;;;;;;;;;15.80;93.40;;;;;;5092820;28;19919;-68
2023/05/09 00:26:32;;;;;;;;;;;15.90;93.20;;;;;;5094361;28;19912;-69
2023/05/09 00:28:58;;;;;;;;;;;15.90;93.20;;;;;;5094647;28;20391;-66
2023/05/09 00:31:25;;;;;;;;;;;15.90;93.40;;;;;;5094426;28;19923;-67
2023/05/09 00:33:53;;;;;;;;;;;16.00;93.00;;;;;;5094808;28;19916;-68
2023/05/09 00:36:20;;;;;;;;;;;16.10;93.10;;;;;;5094349;28;20254;-67
2023/05/09 00:38:46;;;;;;;;;;;16.10;93.20;;;;;;5093850;28;19924;-67
2023/05/09 00:41:13;;;;;;;;;;;16.20;93.00;;;;;;5094600;28;19969;-67
2023/05/09 00:43:39;;;;;;;;;;;16.20;92.90;;;;;;5093753;28;19916;-67
2023/05/09 00:46:06;;;;;;;;;;;16.30;93.10;;;;;;5095053;28;19916;-69
2023/05/09 00:48:33;;;;;;;;;;;16.40;93.00;;;;;;5094262;28;19915;-66
2023/05/09 00:51:00;;;;;;;;;;;16.50;92.80;;;;;;5094649;28;19954;-68
2023/05/09 00:53:27;;;;;;;;;;;16.60;92.80;;;;;;5094837;28;19908;-68
2023/05/09 00:55:56;;;;;;;;;;;16.70;92.80;;;;;;5095203;28;20293;-69
2023/05/09 00:58:23;;;;;;;;;;;16.80;92.50;;;;;;5094359;28;19938;-67
2023/05/09 01:00:50;;;;;;;;;;;16.80;92.40;;;;;;5076126;28;20258;-69
2023/05/09 01:03:17;;;;;;;;;;;16.90;92.30;;;;;;5094749;28;20284;-68
2023/05/09 01:05:51;;;;;;;;;;;17.00;92.30;;;;;;5092877;28;19951;-69
2023/05/09 01:08:30;;;;;;;;;;;17.10;91.60;;;;;;5092133;28;19920;-68
2023/05/09 01:11:16;;;;;;;;;;;17.20;90.90;;;;;;5091257;28;19912;-67
2023/05/09 01:13:43;;;;;;;;;;;17.20;90.70;;;;;;5092124;28;19919;-67
2023/05/09 01:16:28;;;;;;;;;;;17.40;90.50;;;;;;5095292;28;19916;-67
2023/05/09 01:18:57;;;;;;;;;;;17.50;90.60;;;;;;5084864;28;20389;-69
2023/05/09 01:21:28;;;;;;;;;;;17.60;90.40;;;;;;5093103;28;20333;-67
2023/05/09 01:24:09;;;;;;;;;;;17.70;90.20;;;;;;5093062;28;19946;-67
2023/05/09 01:26:46;;;;;;;;;;;17.80;90.20;;;;;;5092402;28;19920;-67
2023/05/09 01:29:51;;;;;;;;;;;17.80;89.80;;;;;;5090202;28;19969;-67
2023/05/09 01:32:28;;;;;;;;;;;17.90;89.80;;;;;;4964247;28;19914;-66
2023/05/09 01:34:54;;;;;;;;;;;18.00;89.30;;;;;;4989683;28;19917;-67
2023/05/09 01:37:29;;;;;;;;;;;18.10;90.00;;;;;;5045410;28;19924;-67
2023/05/09 01:39:58;;;;;;;;;;;18.40;90.10;;;;;;5091638;28;19919;-67
2023/05/09 01:42:27;;;;;;;;;;;18.60;90.00;;;;;;5089767;28;19931;-68
2023/05/09 01:44:54;;;;;;;;;;;18.70;87.70;;;;;;5074585;28;19912;-67
2023/05/09 01:47:20;;;;;;;;;;;18.80;88.10;;;;;;5093464;28;20353;-67
2023/05/09 01:49:47;;;;;;;;;;;18.80;87.60;;;;;;5093319;28;20418;-67
2023/05/09 01:52:16;;;;;;;;;;;18.90;87.30;;;;;;5092435;28;19922;-67
2023/05/09 01:54:44;;;;;;;;;;;19.00;87.40;;;;;;5093562;28;19999;-66
2023/05/09 01:57:11;;;;;;;;;;;19.10;86.70;;;;;;5093305;28;19916;-67
2023/05/09 01:59:42;;;;;;;;;;;19.20;85.30;;;;;;5093096;28;19915;-67
2023/05/09 02:02:09;;;;;;;;;;;19.20;85.40;;;;;;5093440;28;19913;-67
2023/05/09 02:04:36;;;;;;;;;;;19.30;85.30;;;;;;5093044;28;19916;-66
2023/05/09 02:07:04;;;;;;;;;;;19.30;85.20;;;;;;5092563;28;19919;-67
2023/05/09 02:09:31;;;;;;;;;;;19.40;85.10;;;;;;5093077;28;19950;-67
2023/05/09 02:11:57;;;;;;;;;;;19.50;84.00;;;;;;5093262;28;20019;-66
2023/05/09 02:14:24;;;;;;;;;;;19.50;84.20;;;;;;5093279;28;20368;-67
2023/05/09 02:16:51;;;;;;;;;;;19.50;85.30;;;;;;5092570;28;19920;-67
2023/05/09 02:19:18;;;;;;;;;;;19.50;84.90;;;;;;5092572;28;19912;-67
2023/05/09 02:21:44;;;;;;;;;;;19.70;85.20;;;;;;5092354;28;20163;-67
2023/05/09 02:24:11;;;;;;;;;;;19.70;83.80;;;;;;5093328;28;19931;-67
2023/05/09 02:26:38;;;;;;;;;;;19.80;84.30;;;;;;5092539;28;19912;-67
2023/05/09 02:29:06;;;;;;;;;;;20.00;83.40;;;;;;5092022;28;19912;-67
2023/05/09 02:31:33;;;;;;;;;;;20.00;83.80;;;;;;5092298;28;19912;-68
2023/05/09 02:34:01;;;;;;;;;;;20.10;84.30;;;;;;5092128;28;19915;-67
2023/05/09 02:36:28;;;;;;;;;;;20.30;83.80;;;;;;5092048;28;19916;-67
2023/05/09 02:38:55;;;;;;;;;;;20.60;83.00;;;;;;5091510;28;19916;-67
2023/05/09 02:41:21;;;;;;;;;;;21.00;81.60;;;;;;5101314;28;19920;-67
2023/05/09 02:43:48;;;;;;;;;;;21.00;81.10;;;;;;5106744;28;20048;-66
2023/05/09 02:46:15;;;;;;;;;;;20.80;82.10;;;;;;5092634;28;19976;-67
2023/05/09 02:48:41;;;;;;;;;;;20.80;83.20;;;;;;5092738;28;19919;-67
2023/05/09 02:51:08;;;;;;;;;;;20.60;83.80;;;;;;5092855;28;19919;-67
2023/05/09 02:53:34;;;;;;;;;;;20.40;83.40;;;;;;5092379;28;19912;-67
2023/05/09 02:56:02;;;;;;;;;;;20.20;83.80;;;;;;5094673;28;19958;-67
2023/05/09 02:58:29;;;;;;;;;;;20.10;84.50;;;;;;5090923;28;19920;-68
2023/05/09 03:00:56;;;;;;;;;;;19.90;84.30;;;;;;5091912;28;19958;-68
2023/05/09 03:03:24;;;;;;;;;;;19.90;85.10;;;;;;5092268;28;19935;-67
2023/05/09 03:05:50;;;;;;;;;;;19.90;84.90;;;;;;5095628;28;19913;-68
2023/05/09 03:08:17;;;;;;;;;;;20.00;85.10;;;;;;5095616;28;20296;-67
2023/05/09 03:10:44;;;;;;;;;;;20.00;85.10;;;;;;5092969;28;19923;-69
2023/05/09 03:13:10;;;;;;;;;;;20.00;85.00;;;;;;5094762;28;19935;-67
2023/05/09 03:15:37;;;;;;;;;;;20.10;84.50;;;;;;5091285;28;20280;-68
2023/05/09 03:18:03;;;;;;;;;;;20.00;84.30;;;;;;5091048;28;19927;-66
2023/05/09 03:20:30;;;;;;;;;;;20.00;85.20;;;;;;5091487;28;20004;-66
2023/05/09 03:22:57;;;;;;;;;;;20.00;85.30;;;;;;5091817;28;19908;-66
2023/05/09 03:25:25;;;;;;;;;;;20.10;85.50;;;;;;5091702;28;19969;-69
2023/05/09 03:27:51;;;;;;;;;;;20.10;84.90;;;;;;5091576;28;20299;-66
2023/05/09 03:30:18;;;;;;;;;;;20.40;84.80;;;;;;5092176;28;19912;-69
2023/05/09 03:32:44;;;;;;;;;;;20.50;84.10;;;;;;5091298;28;19912;-68
2023/05/09 03:35:11;;;;;;;;;;;20.60;83.70;;;;;;5091930;28;19912;-67
2023/05/09 03:37:38;;;;;;;;;;;20.70;83.60;;;;;;5090457;28;19920;-68
2023/05/09 03:40:05;;;;;;;;;;;20.80;82.70;;;;;;5090267;28;19916;-67
2023/05/09 03:42:32;;;;;;;;;;;20.70;82.70;;;;;;5090197;28;19924;-66
2023/05/09 03:44:59;;;;;;;;;;;20.60;83.20;;;;;;5096893;28;19912;-67
2023/05/09 03:47:26;;;;;;;;;;;20.20;83.50;;;;;;5087610;28;19908;-66
2023/05/09 03:49:52;;;;;;;;;;;20.10;84.60;;;;;;5091055;28;19912;-67
2023/05/09 03:52:19;;;;;;;;;;;20.00;84.00;;;;;;5090014;28;19912;-68
2023/05/09 03:54:45;;;;;;;;;;;19.90;85.00;;;;;;5094228;28;19955;-69
2023/05/09 03:57:12;;;;;;;;;;;19.90;85.10;;;;;;5093006;28;19923;-68
2023/05/09 03:59:39;;;;;;;;;;;20.00;85.00;;;;;;5091075;28;19930;-65
2023/05/09 04:02:06;;;;;;;;;;;19.90;84.80;;;;;;5090216;28;20347;-68
2023/05/09 04:04:32;;;;;;;;;;;19.80;84.70;;;;;;5091334;28;19951;-68
2023/05/09 04:06:59;;;;;;;;;;;19.90;85.30;;;;;;5090494;28;19942;-69
2023/05/09 04:09:27;;;;;;;;;;;19.80;85.30;;;;;;5091224;28;19919;-68
2023/05/09 04:11:53;;;;;;;;;;;19.70;85.90;;;;;;5091170;28;19908;-68
2023/05/09 04:14:20;;;;;;;;;;;19.40;86.50;;;;;;5091833;28;19908;-68
2023/05/09 04:16:46;;;;;;;;;;;19.30;86.90;;;;;;5090711;28;19916;-67
2023/05/09 04:19:13;;;;;;;;;;;19.20;87.00;;;;;;5091085;28;20430;-67
2023/05/09 04:21:40;;;;;;;;;;;19.00;87.70;;;;;;5090551;28;20633;-68
2023/05/09 04:24:07;;;;;;;;;;;18.90;87.60;;;;;;5090696;28;20356;-67
2023/05/09 04:26:37;;;;;;;;;;;18.90;87.40;;;;;;5090986;28;20003;-67
2023/05/09 04:29:04;;;;;;;;;;;18.80;87.40;;;;;;5091345;28;20372;-67
2023/05/09 04:31:30;;;;;;;;;;;18.80;88.00;;;;;;5091334;28;20400;-68
2023/05/09 04:34:00;;;;;;;;;;;18.70;88.00;;;;;;5093432;28;20017;-67
2023/05/09 04:36:27;;;;;;;;;;;18.70;88.80;;;;;;5092989;28;19957;-68
2023/05/09 04:38:54;;;;;;;;;;;18.70;88.80;;;;;;5091267;28;19912;-68
2023/05/09 04:41:21;;;;;;;;;;;18.70;87.60;;;;;;5091172;28;19920;-67
2023/05/09 04:43:48;;;;;;;;;;;18.70;87.50;;;;;;5090893;28;19908;-68
2023/05/09 04:46:14;;;;;;;;;;;18.80;87.70;;;;;;5091023;28;20396;-68
2023/05/09 04:48:41;;;;;;;;;;;18.90;87.80;;;;;;5090766;28;19915;-67
2023/05/09 04:51:08;;;;;;;;;;;19.00;87.30;;;;;;5090133;28;19912;-67
2023/05/09 04:53:34;;;;;;;;;;;19.00;87.80;;;;;;5088991;28;20248;-66
2023/05/09 04:56:01;;;;;;;;;;;19.10;87.90;;;;;;5090609;28;20011;-67
2023/05/09 04:58:28;;;;;;;;;;;19.10;87.00;;;;;;5089988;28;19928;-66
2023/05/09 05:00:54;;;;;;;;;;;19.00;87.20;;;;;;5090034;28;19960;-66
2023/05/09 05:03:21;;;;;;;;;;;19.00;87.30;;;;;;5088336;28;20470;-66
2023/05/09 05:05:48;;;;;;;;;;;19.00;87.60;;;;;;5088253;28;20031;-66
2023/05/09 05:08:15;;;;;;;;;;;19.00;87.20;;;;;;5089543;28;19912;-70
2023/05/09 05:10:41;;;;;;;;;;;19.00;87.50;;;;;;5093090;28;19912;-68
2023/05/09 05:13:08;;;;;;;;;;;19.10;88.00;;;;;;5092660;28;19912;-67
2023/05/09 05:15:34;;;;;;;;;;;19.20;88.40;;;;;;5074006;28;19912;-68
2023/05/09 05:18:01;;;;;;;;;;;19.30;87.40;;;;;;5100813;28;20687;-68
2023/05/09 05:20:28;;;;;;;;;;;19.10;87.80;;;;;;5109777;28;20014;-69
2023/05/09 05:22:54;;;;;;;;;;;19.10;88.40;;;;;;5093548;28;19908;-69
2023/05/09 05:25:21;;;;;;;;;;;19.10;88.30;;;;;;5078146;28;20324;-68
2023/05/09 05:27:48;;;;;;;;;;;19.10;88.30;;;;;;5094591;28;19908;-68
2023/05/09 05:30:14;;;;;;;;;;;19.10;88.50;;;;;;5094415;28;19957;-69
2023/05/09 05:32:42;;;;;;;;;;;19.20;88.40;;;;;;5093625;28;19953;-67
2023/05/09 05:35:10;;;;;;;;;;;19.20;88.80;;;;;;5093872;28;19927;-68
2023/05/09 05:37:37;;;;;;;;;;;19.20;89.40;;;;;;5093585;28;19917;-68
2023/05/09 05:40:04;;;;;;;;;;;19.20;89.10;;;;;;5094627;28;19912;-69
2023/05/09 05:42:31;;;;;;;;;;;19.20;89.60;;;;;;5113911;28;19934;-66
2023/05/09 05:45:03;;;;;;;;;;;19.30;90.10;;;;;;5104549;28;20006;-66
2023/05/09 05:47:31;;;;;;;;;;;19.40;89.70;;;;;;5073855;28;20027;-67
2023/05/09 05:49:58;;;;;;;;;;;19.50;88.70;;;;;;5093249;28;20382;-66
2023/05/09 05:52:26;;;;;;;;;;;19.80;87.90;;;;;;5093645;28;19919;-68
2023/05/09 05:54:55;;;;;;;;;;;19.80;87.00;;;;;;5093573;28;19914;-65
2023/05/09 05:57:22;;;;;;;;;;;20.00;86.70;;;;;;5091124;28;19924;-65
2023/05/09 05:59:49;;;;;;;;;;;20.00;85.90;;;;;;5092070;28;19991;-66
2023/05/09 06:02:17;;;;;;;;;;;20.20;86.60;;;;;;5090466;28;19921;-67
2023/05/09 06:04:43;;;;;;;;;;;20.50;85.10;;;;;;5085932;28;19955;-65
2023/05/09 06:07:11;;;;;;;;;;;20.80;84.50;;;;;;5091894;28;19918;-67
2023/05/09 06:09:38;;;;;;;;;;;21.10;83.50;;;;;;5092180;28;19908;-66
2023/05/09 06:12:05;;;;;;;;;;;21.80;82.20;;;;;;5087074;28;19932;-66
2023/05/09 06:14:31;;;;;;;;;;;22.40;80.70;;;;;;5076056;28;20364;-67
2023/05/09 06:16:58;;;;;;;;;;;22.50;80.30;;;;;;5091292;28;19968;-66
2023/05/09 06:19:25;;;;;;;;;;;22.70;79.20;;;;;;5090976;28;19935;-67
2023/05/09 06:21:52;;;;;;;;;;;23.10;77.10;;;;;;5091644;28;20349;-67
2023/05/09 06:24:18;;;;;;;;;;;23.10;76.80;;;;;;5092616;28;19911;-66
2023/05/09 06:26:45;;;;;;;;;;;22.50;77.50;;;;;;5091278;28;19968;-67
2023/05/09 06:29:13;;;;;;;;;;;22.00;79.20;;;;;;5091691;28;19948;-67
2023/05/09 06:31:40;;;;;;;;;;;21.30;80.20;;;;;;5092527;28;19966;-67
2023/05/09 06:34:07;;;;;;;;;;;20.70;81.50;;;;;;5074542;28;20002;-67
2023/05/09 06:36:34;;;;;;;;;;;20.20;82.20;;;;;;5091193;28;19920;-66
2023/05/09 06:39:00;;;;;;;;;;;19.60;83.30;;;;;;5091993;28;20004;-67
2023/05/09 06:41:27;;;;;;;;;;;19.10;84.50;;;;;;5102940;28;19990;-67
2023/05/09 06:43:54;;;;;;;;;;;18.80;85.20;;;;;;5089010;28;19912;-69
2023/05/09 06:46:20;;;;;;;;;;;18.30;86.10;;;;;;5089752;28;19961;-68
2023/05/09 06:48:47;;;;;;;;;;;18.10;86.80;;;;;;5087056;28;19919;-68
2023/05/09 06:51:13;;;;;;;;;;;17.90;87.70;;;;;;5091526;28;19923;-69
2023/05/09 06:53:40;;;;;;;;;;;17.70;88.60;;;;;;5091948;28;19961;-68
2023/05/09 06:56:07;;;;;;;;;;;17.50;89.60;;;;;;5089657;28;19919;-67
2023/05/09 06:58:33;;;;;;;;;;;17.40;90.00;;;;;;5090987;28;19920;-67
2023/05/09 07:01:00;;;;;;;;;;;17.30;90.20;;;;;;5092012;28;20045;-67
2023/05/09 07:03:27;;;;;;;;;;;17.10;90.40;;;;;;5091653;28;19961;-67
2023/05/09 07:05:55;;;;;;;;;;;17.00;90.60;;;;;;5086625;28;19916;-67
2023/05/09 07:08:22;;;;;;;;;;;16.90;90.90;;;;;;5090991;28;20011;-67
2023/05/09 07:10:49;;;;;;;;;;;16.80;91.20;;;;;;5090575;28;20387;-68
2023/05/09 07:13:15;;;;;;;;;;;16.70;91.60;;;;;;5088254;28;19951;-68
2023/05/09 07:15:42;;;;;;;;;;;16.60;91.80;;;;;;5090611;28;19967;-68
2023/05/09 07:18:08;;;;;;;;;;;16.50;91.90;;;;;;5090747;28;19927;-68
2023/05/09 07:20:35;;;;;;;;;;;16.40;92.20;;;;;;5091069;28;20392;-68
2023/05/09 07:23:05;;;;;;;;;;;16.20;92.70;;;;;;5091274;28;20357;-68
2023/05/09 07:25:31;;;;;;;;;;;16.20;92.90;;;;;;5090920;28;19951;-68
2023/05/09 07:27:58;;;;;;;;;;;16.00;93.00;;;;;;5090861;28;19912;-68
2023/05/09 07:30:25;;;;;;;;;;;16.00;93.50;;;;;;5091452;28;19966;-68
2023/05/09 07:32:51;;;;;;;;;;;15.90;93.90;;;;;;5090400;28;19913;-68
2023/05/09 07:35:18;;;;;;;;;;;15.80;94.40;;;;;;5087486;28;19916;-68
2023/05/09 07:37:45;;;;;;;;;;;15.70;94.60;;;;;;5087501;28;20015;-68
2023/05/09 07:40:12;;;;;;;;;;;15.50;95.20;;;;;;5091093;28;19908;-68
2023/05/09 07:42:38;;;;;;;;;;;15.50;95.70;;;;;;5084467;28;19991;-68
2023/05/09 07:45:05;;;;;;;;;;;15.30;96.00;;;;;;5081978;28;20377;-68
2023/05/09 07:47:32;;;;;;;;;;;15.30;96.60;;;;;;5089317;28;19919;-67
2023/05/09 07:49:59;;;;;;;;;;;15.10;97.00;;;;;;5090967;28;19960;-68
2023/05/09 07:52:25;;;;;;;;;;;15.00;97.50;;;;;;5090698;28;19916;-68
2023/05/09 07:54:53;;;;;;;;;;;15.00;97.70;;;;;;5091802;28;19908;-67
2023/05/09 07:57:20;;;;;;;;;;;14.80;98.10;;;;;;5089719;28;19924;-67
2023/05/09 07:59:46;;;;;;;;;;;14.80;98.60;;;;;;5091349;28;19909;-68
2023/05/09 08:02:13;;;;;;;;;;;14.70;98.90;;;;;;5091458;28;20038;-67
2023/05/09 08:04:40;;;;;;;;;;;14.60;99.30;;;;;;5091671;28;19908;-68
2023/05/09 08:07:07;;;;;;;;;;;14.60;99.80;;;;;;5091486;28;19951;-68
2023/05/09 08:09:34;;;;;;;;;;;14.40;99.90;;;;;;5092131;28;19904;-67
2023/05/09 08:12:01;;;;;;;;;;;14.40;99.90;;;;;;5091466;28;19919;-66
2023/05/09 08:14:30;;;;;;;;;;;14.30;99.90;;;;;;5092084;28;19909;-68
2023/05/09 08:16:57;;;;;;;;;;;14.30;99.90;;;;;;5091104;28;19967;-67
2023/05/09 08:19:24;;;;;;;;;;;14.30;99.90;;;;;;5091700;28;19953;-65
2023/05/09 08:21:52;;;;;;;;;;;14.20;99.90;;;;;;5090957;28;19912;-66
2023/05/09 08:24:19;;;;;;;;;;;14.20;99.90;;;;;;5090848;28;20642;-67
2023/05/09 08:26:45;;;;;;;;;;;14.10;99.90;;;;;;5090362;28;20342;-67
2023/05/09 08:29:12;;;;;;;;;;;14.00;99.90;;;;;;5090689;28;20535;-67
2023/05/09 08:31:38;;;;;;;;;;;14.00;99.90;;;;;;5090448;28;20006;-68
2023/05/09 08:34:05;;;;;;;;;;;14.00;99.90;;;;;;5091180;28;19938;-65
2023/05/09 08:36:32;;;;;;;;;;;14.00;99.90;;;;;;5091385;28;19920;-67
2023/05/09 08:38:59;;;;;;;;;;;14.00;99.90;;;;;;5091726;28;19920;-66
2023/05/09 08:41:29;;;;;;;;;;;14.00;99.90;;;;;;5091414;28;19943;-66
2023/05/09 08:43:56;;;;;;;;;;;13.90;99.90;;;;;;5071511;28;19912;-66
2023/05/09 08:46:33;;;;;;;;;;;13.80;99.90;;;;;;5090910;28;20404;-65
2023/05/09 08:49:00;;;;;;;;;;;13.80;99.90;;;;;;5096016;28;20273;-66
2023/05/09 08:51:26;;;;;;;;;;;13.70;99.90;;;;;;5095505;28;19931;-67
2023/05/09 08:53:53;;;;;;;;;;;13.70;99.90;;;;;;5095512;28;19912;-67
2023/05/09 08:56:20;;;;;;;;;;;13.70;99.90;;;;;;5094125;28;19908;-67
2023/05/09 08:58:47;;;;;;;;;;;13.70;99.90;;;;;;5094921;28;20292;-67
2023/05/09 09:01:13;;;;;;;;;;;13.70;99.90;;;;;;5092166;28;19908;-69
2023/05/09 09:03:46;;;;;;;;;;;13.70;99.90;;;;;;5092260;28;19964;-66
2023/05/09 09:06:13;;;;;;;;;;;13.70;99.90;;;;;;5092184;28;19912;-67
2023/05/09 09:08:40;;;;;;;;;;;13.60;99.90;;;;;;5095153;28;19916;-66
2023/05/09 09:11:07;;;;;;;;;;;13.60;99.90;;;;;;5094591;28;19919;-67
2023/05/09 09:13:37;;;;;;;;;;;13.60;99.90;;;;;;5094745;28;20353;-68
2023/05/09 09:16:04;;;;;;;;;;;13.60;99.90;;;;;;5095040;28;20369;-67
2023/05/09 09:18:32;;;;;;;;;;;13.50;99.90;;;;;;5095282;28;20010;-66
2023/05/09 09:21:01;;;;;;;;;;;13.50;99.90;;;;;;5095152;28;20003;-68
2023/05/09 09:23:29;;;;;;;;;;;13.50;99.90;;;;;;5095092;28;19915;-68
2023/05/09 09:26:00;;;;;;;;;;;13.40;99.90;;;;;;5094060;28;19912;-67
2023/05/09 09:28:27;;;;;;;;;;;13.30;99.90;;;;;;5095320;28;20292;-65
2023/05/09 09:30:53;;;;;;;;;;;13.30;99.90;;;;;;5095397;28;19908;-66
2023/05/09 09:33:26;;;;;;;;;;;13.30;99.90;;;;;;5095409;28;20427;-65
2023/05/09 09:35:53;;;;;;;;;;;13.30;99.90;;;;;;5094951;28;19908;-66
2023/05/09 09:38:21;;;;;;;;;;;13.20;99.90;;;;;;5094361;28;20020;-68
2023/05/09 09:40:57;;;;;;;;;;;13.20;99.90;;;;;;5094762;28;20261;-68
2023/05/09 09:43:31;;;;;;;;;;;13.20;99.90;;;;;;5092735;28;19920;-69
2023/05/09 09:46:01;;;;;;;;;;;13.10;99.90;;;;;;5093731;28;19912;-67
2023/05/09 09:48:35;;;;;;;;;;;13.10;99.90;;;;;;5071184;28;19912;-69
2023/05/09 09:51:11;;;;;;;;;;;13.10;99.90;;;;;;5092310;28;19965;-68
2023/05/09 09:53:41;;;;;;;;;;;13.00;99.90;;;;;;5091147;28;19916;-69
2023/05/09 09:56:08;;;;;;;;;;;13.00;99.90;;;;;;5091716;28;19918;-68
2023/05/09 09:58:35;;;;;;;;;;;13.00;99.90;;;;;;5093414;28;19916;-68
2023/05/09 10:01:15;;;;;;;;;;;12.90;99.90;;;;;;5094198;28;19966;-69
2023/05/09 10:03:46;;;;;;;;;;;12.90;99.90;;;;;;5093798;28;19977;-67
2023/05/09 10:06:14;;;;;;;;;;;12.80;99.90;;;;;;5094143;28;19948;-68
2023/05/09 10:08:43;;;;;;;;;;;12.90;99.90;;;;;;5093206;28;20261;-67
2023/05/09 10:14:06;;;;;;;;;;;12.90;99.90;;;;;;4928916;28;19912;-69
2023/05/09 10:16:33;;;;;;;;;;;12.90;99.90;;;;;;5090011;28;19920;-69
2023/05/09 10:19:00;;;;;;;;;;;12.90;99.90;;;;;;5092187;28;20337;-70
2023/05/09 10:21:26;;;;;;;;;;;12.90;99.90;;;;;;5093001;28;20012;-68
2023/05/09 10:23:53;;;;;;;;;;;12.90;99.90;;;;;;5075246;28;20504;-69
2023/05/09 10:26:26;;;;;;;;;;;12.90;99.90;;;;;;5092942;28;19935;-68
2023/05/09 10:28:54;;;;;;;;;;;12.90;99.90;;;;;;5092999;28;20394;-69
2023/05/09 10:31:22;;;;;;;;;;;12.90;99.90;;;;;;5090447;28;19916;-69
2023/05/09 10:33:50;;;;;;;;;;;13.00;99.90;;;;;;5092542;28;20264;-71
2023/05/09 10:36:19;;;;;;;;;;;12.90;99.90;;;;;;5074786;28;19996;-68
2023/05/09 10:38:55;;;;;;;;;;;13.10;99.90;;;;;;5092538;28;19935;-68
2023/05/09 10:41:22;;;;;;;;;;;13.10;99.90;;;;;;5090453;28;19920;-69
2023/05/09 10:43:49;;;;;;;;;;;13.20;99.90;;;;;;5092713;28;19915;-66
2023/05/09 10:46:16;;;;;;;;;;;13.30;99.90;;;;;;5092467;28;19998;-69
2023/05/09 10:48:43;;;;;;;;;;;13.30;99.90;;;;;;5091760;28;19947;-69
2023/05/09 10:51:11;;;;;;;;;;;13.40;99.90;;;;;;5092372;28;19912;-67
2023/05/09 10:53:45;;;;;;;;;;;13.60;99.90;;;;;;5089416;28;19908;-67
2023/05/09 10:56:25;;;;;;;;;;;13.60;99.90;;;;;;5092864;28;19916;-69
2023/05/09 10:58:53;;;;;;;;;;;13.60;99.90;;;;;;5088432;28;19973;-69
2023/05/09 11:01:31;;;;;;;;;;;13.70;99.90;;;;;;5092084;28;20296;-68
2023/05/09 11:03:59;;;;;;;;;;;13.70;99.90;;;;;;5079622;28;20372;-68
2023/05/09 11:06:48;;;;;;;;;;;13.80;99.90;;;;;;5092757;28;19916;-68
2023/05/09 11:09:28;;;;;;;;;;;13.80;99.90;;;;;;5093021;28;20369;-68
2023/05/09 11:11:56;;;;;;;;;;;13.80;99.90;;;;;;5092677;28;20407;-69
2023/05/09 11:14:33;;;;;;;;;;;13.70;99.90;;;;;;5092886;28;20357;-69
2023/05/09 11:17:02;;;;;;;;;;;13.70;99.90;;;;;;5093458;28;19916;-69
2023/05/09 11:19:37;;;;;;;;;;;13.70;99.90;;;;;;5093020;28;19917;-68
2023/05/09 11:22:11;;;;;;;;;;;13.60;99.90;;;;;;5091633;28;19967;-69
2023/05/09 11:24:38;;;;;;;;;;;13.60;99.90;;;;;;5092809;28;19908;-68
2023/05/09 11:27:24;;;;;;;;;;;13.50;99.90;;;;;;5092573;28;19918;-68
2023/05/09 11:29:55;;;;;;;;;;;13.60;99.90;;;;;;5092617;28;19912;-68
2023/05/09 11:32:22;;;;;;;;;;;13.70;99.90;;;;;;5091985;28;19912;-69
2023/05/09 11:34:49;;;;;;;;;;;13.70;99.70;;;;;;5085979;28;19973;-65
2023/05/09 11:37:16;;;;;;;;;;;13.80;99.70;;;;;;5089359;28;19930;-68
2023/05/09 11:39:57;;;;;;;;;;;13.80;99.70;;;;;;5096297;28;19915;-67
2023/05/09 11:42:25;;;;;;;;;;;13.90;99.70;;;;;;5094388;28;19920;-67
2023/05/09 11:44:52;;;;;;;;;;;14.00;99.60;;;;;;5092411;28;19909;-67
2023/05/09 11:47:20;;;;;;;;;;;13.90;99.60;;;;;;5092189;28;20000;-69
2023/05/09 11:49:50;;;;;;;;;;;14.00;99.50;;;;;;5091908;28;20288;-67
2023/05/09 11:52:20;;;;;;;;;;;14.00;99.50;;;;;;5091389;28;20356;-69
2023/05/09 11:54:48;;;;;;;;;;;14.00;99.40;;;;;;5090560;28;19912;-67
2023/05/09 11:57:18;;;;;;;;;;;14.00;99.40;;;;;;5086713;28;19916;-68
2023/05/09 11:59:45;;;;;;;;;;;14.00;99.40;;;;;;5090729;28;19908;-68
2023/05/09 12:02:12;;;;;;;;;;;14.00;99.40;;;;;;5090174;28;19912;-69
2023/05/09 12:04:38;;;;;;;;;;;14.00;99.70;;;;;;5091502;28;19974;-69
2023/05/09 12:07:06;;;;;;;;;;;14.00;99.70;;;;;;5092119;28;19912;-68
2023/05/09 12:09:33;;;;;;;;;;;14.00;99.60;;;;;;5093055;28;20254;-66
2023/05/09 12:12:00;;;;;;;;;;;14.00;99.60;;;;;;5092086;28;19912;-69
2023/05/09 12:14:27;;;;;;;;;;;14.00;99.60;;;;;;5092519;28;20380;-67
2023/05/09 12:16:54;;;;;;;;;;;13.90;99.40;;;;;;5092454;28;19916;-68
2023/05/09 12:19:23;;;;;;;;;;;14.00;99.40;;;;;;5093050;28;19916;-68
2023/05/09 12:21:53;;;;;;;;;;;14.00;99.40;;;;;;5096344;28;19912;-69
2023/05/09 12:24:20;;;;;;;;;;;14.00;99.30;;;;;;5096156;28;19912;-69
2023/05/09 12:26:48;;;;;;;;;;;14.00;99.20;;;;;;5096305;28;19935;-68
2023/05/09 12:29:14;;;;;;;;;;;14.00;99.20;;;;;;5096392;28;19909;-67
2023/05/09 12:31:41;;;;;;;;;;;14.00;99.30;;;;;;5096139;28;19912;-68
2023/05/09 12:34:09;;;;;;;;;;;14.00;99.50;;;;;;5096419;28;19912;-68
2023/05/09 12:36:39;;;;;;;;;;;14.00;99.60;;;;;;5096629;28;20387;-68
2023/05/09 12:39:12;;;;;;;;;;;14.00;99.50;;;;;;5096660;28;19926;-68
2023/05/09 12:41:51;;;;;;;;;;;14.00;99.50;;;;;;5096260;28;19924;-68
2023/05/09 12:44:21;;;;;;;;;;;13.90;99.50;;;;;;5096028;28;19998;-68
2023/05/09 12:47:17;;;;;;;;;;;13.90;99.50;;;;;;5096445;28;19916;-68
2023/05/09 12:49:48;;;;;;;;;;;13.90;99.60;;;;;;5074748;28;19908;-69
2023/05/09 12:52:21;;;;;;;;;;;13.90;99.40;;;;;;5096045;28;19912;-68
2023/05/09 12:54:48;;;;;;;;;;;13.90;99.50;;;;;;5096063;28;20371;-68
2023/05/09 12:57:26;;;;;;;;;;;13.80;99.60;;;;;;5087939;28;20062;-67
2023/05/09 12:59:57;;;;;;;;;;;13.80;99.50;;;;;;5095941;28;20016;-67
2023/05/09 13:02:26;;;;;;;;;;;13.80;99.70;;;;;;5095595;28;19912;-67
2023/05/09 13:05:24;;;;;;;;;;;13.80;99.70;;;;;;5095129;28;19912;-68
2023/05/09 13:07:52;;;;;;;;;;;13.70;99.80;;;;;;5072560;28;20061;-68
2023/05/09 13:10:27;;;;;;;;;;;13.80;99.70;;;;;;5095941;28;19955;-67
2023/05/09 13:12:53;;;;;;;;;;;13.70;99.80;;;;;;5094947;28;19916;-67
2023/05/09 13:15:21;;;;;;;;;;;13.70;99.80;;;;;;5093731;28;19912;-67
2023/05/09 13:17:48;;;;;;;;;;;13.70;99.60;;;;;;5095465;28;19927;-67
2023/05/09 13:20:15;;;;;;;;;;;13.60;99.70;;;;;;5095897;28;19908;-68
2023/05/09 13:22:45;;;;;;;;;;;13.70;99.40;;;;;;5095656;28;19920;-67
2023/05/09 13:25:12;;;;;;;;;;;13.60;99.60;;;;;;5094941;28;19912;-68
2023/05/09 13:27:39;;;;;;;;;;;13.60;99.80;;;;;;5095423;28;20360;-66
2023/05/09 13:30:08;;;;;;;;;;;13.40;99.70;;;;;;5095472;28;20007;-67
2023/05/09 13:32:38;;;;;;;;;;;13.40;99.70;;;;;;5093708;28;19967;-66
2023/05/09 13:35:06;;;;;;;;;;;13.40;99.90;;;;;;5094570;28;19912;-66
2023/05/09 13:37:33;;;;;;;;;;;13.30;99.90;;;;;;5095316;28;20038;-67
2023/05/09 13:40:00;;;;;;;;;;;13.30;99.90;;;;;;5095172;28;19912;-65
2023/05/09 13:42:27;;;;;;;;;;;13.30;99.90;;;;;;5094632;28;19966;-66
2023/05/09 13:44:53;;;;;;;;;;;13.40;99.90;;;;;;5095133;28;19943;-66
2023/05/09 13:47:20;;;;;;;;;;;13.40;99.50;;;;;;5095360;28;19918;-68
2023/05/09 13:49:47;;;;;;;;;;;13.40;99.60;;;;;;5095229;28;19914;-67
2023/05/09 13:52:15;;;;;;;;;;;13.40;99.50;;;;;;5095273;28;19912;-67
2023/05/09 13:54:41;;;;;;;;;;;13.50;99.40;;;;;;5094690;28;19912;-67
2023/05/09 13:57:08;;;;;;;;;;;13.40;99.40;;;;;;5094802;28;19916;-68
2023/05/09 13:59:35;;;;;;;;;;;13.40;99.20;;;;;;5095190;28;20265;-68
2023/05/09 14:02:01;;;;;;;;;;;13.50;99.30;;;;;;5094120;28;19919;-68
2023/05/09 14:04:30;;;;;;;;;;;13.50;99.20;;;;;;5095048;28;19908;-67
2023/05/09 14:06:57;;;;;;;;;;;13.40;99.10;;;;;;5094902;28;20348;-68
2023/05/09 14:09:24;;;;;;;;;;;13.40;99.20;;;;;;5094433;28;19955;-68
2023/05/09 14:11:51;;;;;;;;;;;13.30;99.30;;;;;;5094220;28;19943;-68
2023/05/09 14:14:21;;;;;;;;;;;13.30;99.40;;;;;;5094326;28;20272;-68
2023/05/09 14:16:48;;;;;;;;;;;13.20;99.40;;;;;;5094687;28;20360;-68
2023/05/09 14:19:15;;;;;;;;;;;13.20;99.50;;;;;;5094655;28;19912;-68
2023/05/09 14:21:42;;;;;;;;;;;13.20;99.60;;;;;;5094154;28;19920;-68
2023/05/09 14:24:09;;;;;;;;;;;13.20;99.70;;;;;;5094544;28;19931;-67
2023/05/09 14:26:36;;;;;;;;;;;13.20;99.70;;;;;;5094528;28;19918;-67